Rockledge, Pennsylvania
Current Conditions -  °F | °C
As of 4:54 AM on Saturday 25 Oct 2014 (Local Time) from KPNE Reporting Station
Clear Clear  
Wind Chill: 46°   Ceiling: Unl
Heat Index: 48°   Visibility: 10mi
Dew Point: 33°   Wind: 5mph
Humidity: 56%   Direction: 290°WNW
Pressure: 29.92"   Gusts: NA
Location:  40.1039°N, 75.1072°W
Report Text: KPNE 250854Z 29004KT 10SM CLR 09/01 A2992 RMK AO2 SLP130 T00890006 53003
Loading
Personal Weather Stations






























Interactive Weather Map
Tropical Storm Tracking
New forecast layout! Learn more

10-Day Weather Forecast

Advertisements
Track Severe Weather on mobile